Terminal Aerodrome Forecast
Issued by NWS Dodge City, KS

Home | Current Version | Previous Version | Graphics & Text | Print | Product List | Glossary Off
Versions: 1 2 3 4 5 6 7 8 9 10 11 12 13 14 15 16 17 18 19 20 21 22 23 24 25 26 27 28 29 30 31 32 33 34

000
FTUS43 KDDC 231128 AAA
TAFDDC
TAF AMD
KDDC 231128Z 2311/2412 17014KT P6SM SCT200
     FM231500 20020G30KT P6SM SKC
     FM232100 20015G25KT P6SM SCT100
     FM240200 18014G24KT P6SM SKC
     FM240600 18010KT P6SM SKC=

USA.gov is the U.S. government's official web portal to all federal, state and local government web resources and services.